Time;durP1;ratioP1;P1;durP2;ratioP2;P2;SDS_P1;SDS_P2;PMS_P1;PMS_P2;Temp;Humidity;BMP_temperature;BMP_pressure;BME280_temperature;BME280_humidity;BME280_pressure;Samples;Min_cycle;Max_cycle;Signal;HPM_P1;HPM_P2
2023/07/05 00:00:35;;;;;;;;;;;;;;;20.84;50.03;99328.88;1087420;54;19954;-84
2023/07/05 00:01:36;;;;;;;;;;;;;;;20.79;50.23;99338.75;1087409;54;19950;-85
2023/07/05 00:02:39;;;;;;;;;;;;;;;20.82;49.96;99330.16;1087280;46;19969;-85
2023/07/05 00:03:40;;;;;;;;;;;;;;;20.86;49.64;99328.66;1087288;54;19950;-84
2023/07/05 00:04:45;;;;;;;;;;;;;;;20.91;49.84;99334.22;1087214;47;19942;-84
2023/07/05 00:05:47;;;;;;;;;;;;;;;20.92;49.54;99321.47;1087154;54;19943;-84
2023/07/05 00:06:53;;;;;;;;;;;;;;;20.95;49.61;99319.13;1087389;54;19950;-84
2023/07/05 00:07:54;;;;;;;;;;;;;;;20.97;49.28;99325.13;1087407;54;19954;-85
2023/07/05 00:09:00;;;;;;;;;;;;;;;21.00;49.65;99327.41;1087476;54;19942;-85
2023/07/05 00:10:01;;;;;;;;;;;;;;;21.07;49.36;99326.47;1087421;54;19942;-84
2023/07/05 00:11:04;;;;;;;;;;;;;;;21.03;49.29;99326.94;1087452;54;20352;-83
2023/07/05 00:12:06;;;;;;;;;;;;;;;21.00;49.40;99321.97;1087040;47;20006;-83
2023/07/05 00:13:09;;;;;;;;;;;;;;;21.05;49.34;99321.28;1090192;39;20264;-82
2023/07/05 00:14:10;;;;;;;;;;;;;;;21.04;49.55;99319.63;1087222;54;19942;-83
2023/07/05 00:15:14;;;;;;;;;;;;;;;21.05;49.14;99315.84;1087516;54;19942;-84
2023/07/05 00:16:14;;;;;;;;;;;;;;;21.10;49.20;99309.72;1087030;47;19943;-81
2023/07/05 00:17:18;;;;;;;;;;;;;;;21.12;48.88;99311.13;1087122;47;19942;-83
2023/07/05 00:18:18;;;;;;;;;;;;;;;21.17;48.94;99299.56;1087164;54;19973;-83
2023/07/05 00:19:22;;;;;;;;;;;;;;;21.20;48.90;99304.53;1087202;47;19978;-84
2023/07/05 00:20:23;;;;;;;;;;;;;;;21.25;48.76;99307.41;1087207;54;19966;-83
2023/07/05 00:21:26;;;;;;;;;;;;;;;21.24;48.86;99300.31;1087167;47;19943;-82
2023/07/05 00:22:27;;;;;;;;;;;;;;;21.23;48.81;99301.38;1087207;54;19951;-83
2023/07/05 00:23:28;;;;;;;;;;;;;;;21.25;48.85;99296.53;1087451;54;19942;-83
2023/07/05 00:24:34;;;;;;;;;;;;;;;21.22;49.03;99305.16;1087191;47;19994;-83
2023/07/05 00:25:34;;;;;;;;;;;;;;;21.19;48.78;99295.56;1087156;54;19943;-82
2023/07/05 00:26:38;;;;;;;;;;;;;;;21.23;48.52;99293.22;1087517;54;19943;-83
2023/07/05 00:27:39;;;;;;;;;;;;;;;21.17;48.59;99288.69;1087474;54;19942;-83
2023/07/05 00:28:43;;;;;;;;;;;;;;;21.18;48.46;99283.03;1087363;54;19948;-84
2023/07/05 00:29:43;;;;;;;;;;;;;;;21.19;48.58;99275.72;1087240;47;19974;-82
2023/07/05 00:30:48;;;;;;;;;;;;;;;21.19;48.49;99283.84;1087203;54;19943;-84
2023/07/05 00:31:49;;;;;;;;;;;;;;;21.23;48.16;99285.06;1087446;54;19942;-84
2023/07/05 00:32:52;;;;;;;;;;;;;;;21.19;48.44;99278.44;1087322;47;19949;-83
2023/07/05 00:33:53;;;;;;;;;;;;;;;21.22;48.48;99279.84;1087198;54;19942;-85
2023/07/05 00:34:57;;;;;;;;;;;;;;;21.22;48.26;99277.13;1087117;47;19973;-83
2023/07/05 00:35:58;;;;;;;;;;;;;;;21.17;48.13;99272.38;1087126;47;19943;-82
2023/07/05 00:37:01;;;;;;;;;;;;;;;21.19;48.46;99273.00;1087117;54;20350;-83
2023/07/05 00:38:02;;;;;;;;;;;;;;;21.20;48.04;99269.22;1087416;54;19942;-83
2023/07/05 00:39:05;;;;;;;;;;;;;;;21.20;48.18;99271.94;1087239;47;19942;-85
2023/07/05 00:40:09;;;;;;;;;;;;;;;21.16;48.32;99271.56;1087110;54;19978;-84
2023/07/05 00:41:13;;;;;;;;;;;;;;;21.11;48.12;99276.88;1087091;47;19949;-84
2023/07/05 00:42:13;;;;;;;;;;;;;;;21.16;48.30;99268.03;1087173;47;19942;-82
2023/07/05 00:43:18;;;;;;;;;;;;;;;21.10;48.09;99271.66;1087156;54;19983;-83
2023/07/05 00:44:19;;;;;;;;;;;;;;;21.03;48.20;99269.06;1087403;54;20023;-84
2023/07/05 00:45:37;;;;;;;;;;;;;;;20.96;48.68;99274.59;1087340;54;19966;-83
2023/07/05 00:46:41;;;;;;;;;;;;;;;20.74;49.17;99279.72;1087172;47;19943;-84
2023/07/05 00:47:47;;;;;;;;;;;;;;;20.67;49.25;99274.38;1087154;54;19942;-84
2023/07/05 00:48:52;;;;;;;;;;;;;;;20.60;49.34;99273.59;1087125;47;19943;-84
2023/07/05 00:50:03;;;;;;;;;;;;;;;20.49;49.93;99279.81;1087234;54;19998;-86
2023/07/05 00:51:06;;;;;;;;;;;;;;;20.48;49.89;99280.88;1087007;47;19950;-85
2023/07/05 00:52:12;;;;;;;;;;;;;;;20.47;49.67;99280.03;1087177;54;19949;-83
2023/07/05 00:53:13;;;;;;;;;;;;;;;20.46;50.05;99272.13;1087427;54;19966;-86
2023/07/05 00:54:19;;;;;;;;;;;;;;;20.45;50.08;99271.28;1087175;47;19962;-84
2023/07/05 00:55:23;;;;;;;;;;;;;;;20.41;50.38;99272.81;1087252;54;19966;-83
2023/07/05 00:56:28;;;;;;;;;;;;;;;20.45;50.30;99270.47;1087055;47;19998;-84
2023/07/05 00:57:30;;;;;;;;;;;;;;;20.33;50.50;99270.41;1087330;54;19974;-85
2023/07/05 00:58:33;;;;;;;;;;;;;;;20.29;50.82;99259.19;1087217;54;19942;-85
2023/07/05 00:59:37;;;;;;;;;;;;;;;20.28;51.04;99265.69;1087299;54;19962;-82
2023/07/05 01:00:41;;;;;;;;;;;;;;;20.20;51.14;99263.28;1087206;47;19938;-84
2023/07/05 01:01:42;;;;;;;;;;;;;;;20.21;51.44;99273.06;1087262;47;20035;-81
2023/07/05 01:02:48;;;;;;;;;;;;;;;20.20;51.30;99269.50;1086902;47;19966;-82
2023/07/05 01:03:51;;;;;;;;;;;;;;;20.20;51.61;99271.41;1087406;47;19943;-82
2023/07/05 01:04:55;;;;;;;;;;;;;;;20.23;51.53;99265.50;1087496;54;19952;-83
2023/07/05 01:05:57;;;;;;;;;;;;;;;20.18;51.66;99257.25;1087445;47;19950;-83
2023/07/05 01:07:00;;;;;;;;;;;;;;;20.15;51.79;99265.81;1087554;47;19947;-86
2023/07/05 01:08:03;;;;;;;;;;;;;;;20.04;52.55;99262.81;1087638;54;19977;-83
2023/07/05 01:09:07;;;;;;;;;;;;;;;19.97;52.55;99267.47;1087773;54;19977;-84
2023/07/05 01:10:15;;;;;;;;;;;;;;;19.93;52.99;99271.72;1087666;54;19962;-82
2023/07/05 01:11:25;;;;;;;;;;;;;;;19.95;53.03;99269.59;1087536;54;19942;-83
2023/07/05 01:12:30;;;;;;;;;;;;;;;19.96;53.01;99273.97;1088054;54;19943;-84
2023/07/05 01:13:38;;;;;;;;;;;;;;;19.95;53.08;99275.00;1087867;47;19942;-84
2023/07/05 01:14:43;;;;;;;;;;;;;;;19.91;53.20;99274.63;1087883;54;20021;-85
2023/07/05 01:15:51;;;;;;;;;;;;;;;19.93;52.98;99277.97;1087762;47;19955;-85
2023/07/05 01:16:59;;;;;;;;;;;;;;;19.90;52.71;99266.75;1087292;54;19946;-84
2023/07/05 01:18:07;;;;;;;;;;;;;;;19.91;52.72;99268.41;1087459;54;19949;-83
2023/07/05 01:19:30;;;;;;;;;;;;;;;19.90;52.13;99277.59;1087233;47;19942;-83
2023/07/05 01:20:37;;;;;;;;;;;;;;;19.99;51.79;99276.22;1087499;54;19949;-83
2023/07/05 01:21:43;;;;;;;;;;;;;;;20.04;51.88;99279.09;1087273;47;19949;-83
2023/07/05 01:23:03;;;;;;;;;;;;;;;20.07;51.63;99278.66;1087310;47;19939;-83
2023/07/05 01:24:18;;;;;;;;;;;;;;;20.09;51.59;99278.41;1087400;54;19947;-84
2023/07/05 01:25:35;;;;;;;;;;;;;;;20.13;51.18;99285.06;1087580;47;20011;-85
2023/07/05 01:26:51;;;;;;;;;;;;;;;20.16;51.23;99281.91;1087637;47;19958;-84
2023/07/05 01:28:07;;;;;;;;;;;;;;;20.21;50.84;99278.50;1087698;54;19949;-84
2023/07/05 01:29:28;;;;;;;;;;;;;;;20.20;50.89;99288.50;1087327;47;19973;-84
2023/07/05 01:30:49;;;;;;;;;;;;;;;20.22;50.77;99289.13;1087454;54;19962;-82
2023/07/05 01:31:59;;;;;;;;;;;;;;;20.35;50.66;99288.13;1087586;54;19949;-84
2023/07/05 01:33:05;;;;;;;;;;;;;;;20.37;50.58;99287.88;1087116;47;19939;-83
2023/07/05 01:34:10;;;;;;;;;;;;;;;20.26;50.72;99300.34;1087289;47;19962;-84
2023/07/05 01:35:17;;;;;;;;;;;;;;;20.30;50.73;99296.13;1087633;54;19991;-85
2023/07/05 01:36:19;;;;;;;;;;;;;;;20.28;51.33;99303.66;1087718;47;19967;-84
2023/07/05 01:37:31;;;;;;;;;;;;;;;20.18;51.75;99300.66;1087411;47;19942;-82
2023/07/05 01:38:32;;;;;;;;;;;;;;;20.16;52.07;99302.75;1087385;54;19943;-84
2023/07/05 01:39:36;;;;;;;;;;;;;;;20.08;52.21;99307.44;1087586;54;19949;-84
2023/07/05 01:40:50;;;;;;;;;;;;;;;19.98;52.68;99319.88;1087277;54;19973;-84
2023/07/05 01:41:54;;;;;;;;;;;;;;;19.86;53.38;99336.88;1087554;54;19949;-83
2023/07/05 01:42:56;;;;;;;;;;;;;;;19.97;53.10;99370.56;1087802;54;19973;-84
2023/07/05 01:44:23;;;;;;;;;;;;;;;20.06;53.83;99390.91;1088056;54;19943;-85
2023/07/05 01:45:26;;;;;;;;;;;;;;;19.69;57.47;99390.78;1088113;54;19987;-85
2023/07/05 01:46:30;;;;;;;;;;;;;;;19.57;60.26;99435.91;1087795;54;20031;-84
2023/07/05 01:47:36;;;;;;;;;;;;;;;19.30;63.29;99464.03;1088027;54;19992;-86
2023/07/05 01:48:43;;;;;;;;;;;;;;;19.13;65.52;99458.25;1088053;47;19939;-84
2023/07/05 01:58:02;;;;;;;;;;;;;;;19.26;66.60;99389.63;1087433;54;19982;-80
2023/07/05 01:59:06;;;;;;;;;;;;;;;19.25;67.54;99379.03;1087304;47;19946;-81
2023/07/05 02:00:16;;;;;;;;;;;;;;;19.17;69.21;99367.41;1087585;54;19953;-80
2023/07/05 02:01:23;;;;;;;;;;;;;;;19.20;68.23;99368.84;1087418;51;19939;-81
2023/07/05 02:02:30;;;;;;;;;;;;;;;19.18;69.06;99369.03;1087361;47;19926;-82
2023/07/05 02:03:34;;;;;;;;;;;;;;;19.11;68.91;99368.25;1087015;54;20013;-81
2023/07/05 03:43:35;;;;;;;;;;;;;;;;;;;;;
2023/07/05 03:44:59;;;;;;;;;;;;;;;18.50;74.19;99356.84;1087945;47;19946;-85
2023/07/05 03:46:00;;;;;;;;;;;;;;;18.43;74.26;99357.91;1087897;46;19955;-84
2023/07/05 03:47:10;;;;;;;;;;;;;;;18.43;74.07;99356.03;1087986;47;19949;-84
2023/07/05 03:48:12;;;;;;;;;;;;;;;18.44;74.06;99357.69;1087847;47;19964;-83
2023/07/05 03:49:16;;;;;;;;;;;;;;;18.39;74.28;99361.03;1087911;46;20808;-85
2023/07/05 03:50:17;;;;;;;;;;;;;;;18.37;74.18;99362.28;1087927;47;19946;-85
2023/07/05 03:51:23;;;;;;;;;;;;;;;18.39;74.04;99365.63;1087701;47;19967;-83
2023/07/05 03:52:23;;;;;;;;;;;;;;;18.37;74.87;99360.41;1087659;54;19949;-83
2023/07/05 03:53:28;;;;;;;;;;;;;;;18.46;74.21;99358.31;1087390;47;21072;-82
2023/07/05 03:54:29;;;;;;;;;;;;;;;18.49;74.11;99363.31;1087913;39;20758;-84
2023/07/05 03:55:36;;;;;;;;;;;;;;;18.51;73.49;99357.66;1087532;47;19965;-81
2023/07/05 03:56:37;;;;;;;;;;;;;;;18.54;73.52;99357.25;1089075;39;20714;-84
2023/07/05 03:57:40;;;;;;;;;;;;;;;18.59;73.36;99359.31;1087625;46;20014;-84
2023/07/05 03:58:44;;;;;;;;;;;;;;;18.59;73.10;99362.84;1087423;47;19923;-84
2023/07/05 03:59:48;;;;;;;;;;;;;;;18.60;72.91;99361.81;1087650;47;19954;-84
2023/07/05 04:01:03;;;;;;;;;;;;;;;18.63;72.78;99358.69;1087991;54;19942;-85
2023/07/05 04:02:06;;;;;;;;;;;;;;;18.63;73.16;99366.78;1087548;47;20030;-84
2023/07/05 04:03:07;;;;;;;;;;;;;;;18.67;72.90;99361.78;1087638;47;20015;-82
2023/07/05 04:04:11;;;;;;;;;;;;;;;18.70;72.20;99353.25;1087717;54;19943;-85
2023/07/05 04:05:11;;;;;;;;;;;;;;;18.71;72.21;99350.31;1087634;54;21073;-83
2023/07/05 04:06:23;;;;;;;;;;;;;;;18.74;71.88;99359.88;1087525;47;19938;-86
2023/07/05 04:07:26;;;;;;;;;;;;;;;18.75;71.57;99350.69;1087578;54;20785;-83
2023/07/05 04:08:36;;;;;;;;;;;;;;;18.74;71.69;99353.63;1088103;46;20843;-85
2023/07/05 04:09:37;;;;;;;;;;;;;;;18.69;71.96;99354.28;1088046;47;19940;-85
2023/07/05 04:10:41;;;;;;;;;;;;;;;18.64;72.09;99357.63;1087996;46;19972;-84
2023/07/05 04:11:41;;;;;;;;;;;;;;;18.61;72.13;99357.22;1088053;46;19930;-86
2023/07/05 04:12:45;;;;;;;;;;;;;;;18.58;72.10;99363.06;1087899;47;19923;-86
2023/07/05 04:13:49;;;;;;;;;;;;;;;18.54;72.10;99365.38;1088168;47;19938;-86
2023/07/05 04:14:52;;;;;;;;;;;;;;;18.56;72.17;99371.41;1088080;46;19923;-87
2023/07/05 04:16:11;;;;;;;;;;;;;;;18.54;71.93;99368.91;1089505;39;20650;-85
2023/07/05 04:18:53;;;;;;;;;;;;;;;18.52;72.84;99365.56;1088016;54;19942;-85
2023/07/05 04:19:54;;;;;;;;;;;;;;;18.52;72.52;99360.16;1087892;46;19923;-85
2023/07/05 04:26:40;;;;;;;;;;;;;;;18.46;74.03;99363.72;1088069;54;19926;-87
2023/07/05 04:33:56;;;;;;;;;;;;;;;18.61;73.00;99362.66;1088103;54;19942;-85
2023/07/05 04:35:04;;;;;;;;;;;;;;;18.60;73.27;99369.91;1088129;46;19931;-85
2023/07/05 04:36:13;;;;;;;;;;;;;;;18.65;72.73;99364.72;1087691;47;19939;-85
2023/07/05 04:37:14;;;;;;;;;;;;;;;18.70;71.87;99362.19;1087695;54;19942;-87
2023/07/05 04:38:22;;;;;;;;;;;;;;;18.61;72.38;99362.66;1088172;47;19959;-86
2023/07/05 05:02:32;;;;;;;;;;;;;;;19.13;71.54;99339.06;1088356;47;20008;-87
2023/07/05 05:15:57;;;;;;;;;;;;;;;19.68;68.85;99325.94;1086208;54;19927;-87
2023/07/05 06:03:46;;;;;;;;;;;;;;;17.82;84.01;99433.69;1087770;54;19946;-86
2023/07/05 06:04:48;;;;;;;;;;;;;;;17.60;86.42;99447.38;1087982;39;20525;-87
2023/07/05 06:05:52;;;;;;;;;;;;;;;17.60;87.39;99458.19;1088137;47;19923;-85
2023/07/05 06:07:06;;;;;;;;;;;;;;;17.69;86.57;99452.59;1088139;54;19977;-86
2023/07/05 06:08:32;;;;;;;;;;;;;;;17.80;86.62;99433.06;1088141;54;19934;-86
2023/07/05 06:10:31;;;;;;;;;;;;;;;17.73;86.65;99430.34;1088203;54;19958;-86
2023/07/05 06:13:42;;;;;;;;;;;;;;;17.72;87.11;99457.59;1088237;54;19933;-87
2023/07/05 06:15:12;;;;;;;;;;;;;;;17.76;86.36;99432.66;1088172;46;19994;-87
2023/07/05 06:16:19;;;;;;;;;;;;;;;17.73;86.34;99437.63;1088238;46;19938;-86
2023/07/05 06:17:46;;;;;;;;;;;;;;;17.79;86.15;99436.81;1095318;39;20716;-86
2023/07/05 06:19:22;;;;;;;;;;;;;;;17.81;86.39;99434.72;1088164;54;19968;-85
2023/07/05 06:20:53;;;;;;;;;;;;;;;17.86;85.73;99440.34;1088413;46;19930;-87
2023/07/05 06:34:54;;;;;;;;;;;;;;;18.44;83.98;99468.63;1088293;54;19938;-84
2023/07/05 06:36:00;;;;;;;;;;;;;;;18.53;83.07;99475.47;1087879;46;19934;-83
2023/07/05 06:37:03;;;;;;;;;;;;;;;18.60;83.30;99469.25;1087957;47;19923;-84
2023/07/05 06:38:04;;;;;;;;;;;;;;;18.65;83.47;99472.13;1088061;54;19926;-85
2023/07/05 06:39:13;;;;;;;;;;;;;;;18.71;82.86;99469.41;1087987;47;19948;-84
2023/07/05 06:40:14;;;;;;;;;;;;;;;18.55;83.40;99484.22;1088153;47;19945;-86
2023/07/05 06:41:19;;;;;;;;;;;;;;;18.58;83.90;99491.09;1088211;54;20021;-87
2023/07/05 06:42:20;;;;;;;;;;;;;;;18.61;84.20;99492.56;1088276;54;19975;-86
2023/07/05 06:43:40;;;;;;;;;;;;;;;18.72;83.74;99494.59;1088298;47;19971;-87
2023/07/05 06:44:42;;;;;;;;;;;;;;;18.69;83.98;99495.03;1088069;47;19990;-85
2023/07/05 06:45:49;;;;;;;;;;;;;;;18.75;83.18;99507.72;1088108;54;19942;-86
2023/07/05 06:46:51;;;;;;;;;;;;;;;18.66;84.31;99495.47;1088032;47;19930;-86
2023/07/05 06:48:05;;;;;;;;;;;;;;;18.61;84.25;99497.97;1088120;54;19982;-85
2023/07/05 06:49:06;;;;;;;;;;;;;;;18.59;84.03;99500.06;1087949;47;19948;-86
2023/07/05 06:50:13;;;;;;;;;;;;;;;18.57;84.42;99492.13;1088079;54;19926;-85
2023/07/05 06:51:14;;;;;;;;;;;;;;;18.51;84.60;99493.84;1088144;46;19923;-84
2023/07/05 06:52:23;;;;;;;;;;;;;;;18.52;84.31;99490.06;1087966;47;19945;-85
2023/07/05 06:53:27;;;;;;;;;;;;;;;18.54;84.01;99490.69;1088080;54;19934;-84
2023/07/05 06:54:47;;;;;;;;;;;;;;;18.68;83.69;99490.66;1087999;54;19969;-87
2023/07/05 06:55:55;;;;;;;;;;;;;;;18.71;83.18;99488.38;1088076;47;19953;-87
2023/07/05 06:58:50;;;;;;;;;;;;;;;18.75;83.12;99494.19;1088157;47;19969;-85
2023/07/05 06:59:57;;;;;;;;;;;;;;;18.73;82.84;99490.03;1088053;47;19934;-85
2023/07/05 07:02:46;;;;;;;;;;;;;;;18.89;81.59;99496.88;1087804;54;19942;-85
2023/07/05 07:03:48;;;;;;;;;;;;;;;18.86;81.50;99501.66;1087929;54;19994;-85
2023/07/05 07:04:52;;;;;;;;;;;;;;;18.97;81.13;99502.09;1087994;47;19930;-84
2023/07/05 07:05:56;;;;;;;;;;;;;;;18.92;80.80;99505.41;1088140;47;19942;-86
2023/07/05 07:07:00;;;;;;;;;;;;;;;18.89;79.56;99507.72;1087902;47;20671;-84
2023/07/05 07:08:01;;;;;;;;;;;;;;;18.77;80.17;99519.19;1088184;47;20013;-86
2023/07/05 07:09:06;;;;;;;;;;;;;;;18.70;79.85;99521.06;1088085;47;19945;-85
2023/07/05 07:10:08;;;;;;;;;;;;;;;18.62;79.68;99522.13;1088008;47;19927;-86
2023/07/05 07:11:13;;;;;;;;;;;;;;;18.58;80.01;99526.28;1087964;47;19938;-85
2023/07/05 07:12:14;;;;;;;;;;;;;;;18.51;80.37;99522.75;1088066;54;19942;-85
2023/07/05 07:13:18;;;;;;;;;;;;;;;18.49;80.56;99527.53;1088010;54;19931;-84
2023/07/05 07:14:18;;;;;;;;;;;;;;;18.58;80.27;99533.59;1088068;47;20816;-85
2023/07/05 07:15:22;;;;;;;;;;;;;;;18.55;80.16;99532.13;1088149;46;19931;-84
2023/07/05 07:16:23;;;;;;;;;;;;;;;18.61;79.88;99542.09;1087921;47;19939;-87
2023/07/05 07:22:15;;;;;;;;;;;;;;;18.53;78.43;99535.03;1088003;54;19938;-85
2023/07/05 07:56:10;;;;;;;;;;;;;;;19.58;63.40;99571.25;1078828;54;19982;-85
2023/07/05 08:19:12;;;;;;;;;;;;;;;20.83;55.71;99598.00;1073504;54;19998;31
2023/07/05 08:20:20;;;;;;;;;;;;;;;20.75;55.16;99582.00;1084371;47;19939;-83
2023/07/05 08:37:33;;;;;;;;;;;;;;;20.47;53.30;99608.50;1088325;54;19935;-85
2023/07/05 10:27:29;;;;;;;;;;;;;;;21.97;41.46;99676.47;1087177;54;19942;-87
2023/07/05 10:28:31;;;;;;;;;;;;;;;21.96;41.18;99685.69;1087792;47;19997;-86
2023/07/05 10:29:34;;;;;;;;;;;;;;;22.35;40.92;99688.09;1087685;46;19946;-86
2023/07/05 10:30:48;;;;;;;;;;;;;;;22.30;40.49;99690.69;1087659;47;19931;-87
2023/07/05 10:31:54;;;;;;;;;;;;;;;21.86;40.78;99692.72;1087754;47;19966;-86
2023/07/05 10:33:08;;;;;;;;;;;;;;;21.95;40.80;99694.91;1088079;46;19927;-89
2023/07/05 10:49:17;;;;;;;;;;;;;;;22.04;39.80;99709.03;1087065;46;19938;-88
2023/07/05 10:50:20;;;;;;;;;;;;;;;21.97;40.16;99711.84;1088061;46;19943;-87
2023/07/05 10:51:24;;;;;;;;;;;;;;;22.01;40.16;99708.66;1087907;47;19949;-86
2023/07/05 10:52:25;;;;;;;;;;;;;;;21.93;40.13;99710.63;1087772;54;19943;-86
2023/07/05 11:08:14;;;;;;;;;;;;;;;21.84;39.04;99716.59;1088066;46;19922;-87
2023/07/05 11:09:34;;;;;;;;;;;;;;;;;;;;;
2023/07/05 11:10:43;;;;;;;;;;;;;;;21.64;39.85;99715.75;1093358;39;20362;-87
2023/07/05 11:11:46;;;;;;;;;;;;;;;21.69;39.85;99716.97;1087754;47;19942;-89
2023/07/05 11:21:37;;;;;;;;;;;;;;;21.39;39.69;99702.19;1088646;54;19942;-87
2023/07/05 11:22:40;;;;;;;;;;;;;;;21.63;39.12;99707.84;1088261;47;19994;-86
2023/07/05 11:24:07;;;;;;;;;;;;;;;21.81;38.79;99715.19;1088449;47;19965;-88
2023/07/05 11:25:10;;;;;;;;;;;;;;;21.77;39.07;99706.59;1088316;47;19934;-90
2023/07/05 11:40:00;;;;;;;;;;;;;;;21.42;36.48;99717.22;1088431;54;19927;-86
2023/07/05 11:44:37;;;;;;;;;;;;;;;21.40;37.34;99719.34;1088344;54;19943;-87
2023/07/05 12:06:15;;;;;;;;;;;;;;;21.29;38.36;99727.16;1088280;54;19994;-86
2023/07/05 12:11:39;;;;;;;;;;;;;;;21.78;38.84;99731.94;1087617;54;19943;-85
2023/07/05 12:12:39;;;;;;;;;;;;;;;21.84;37.80;99731.03;1088010;46;19942;-87
2023/07/05 12:14:51;;;;;;;;;;;;;;;22.00;36.60;99724.16;1087238;54;19942;-88
2023/07/05 12:18:36;;;;;;;;;;;;;;;22.11;35.59;99728.81;1087572;47;19922;-87
2023/07/05 12:19:38;;;;;;;;;;;;;;;22.09;35.62;99730.13;1087435;47;19934;-87
2023/07/05 12:20:43;;;;;;;;;;;;;;;22.08;35.98;99726.56;1087727;46;19996;-86
2023/07/05 12:21:50;;;;;;;;;;;;;;;22.06;36.05;99733.28;1087982;39;20609;-86
2023/07/05 12:22:54;;;;;;;;;;;;;;;21.96;35.77;99733.84;1087910;54;19965;-86
2023/07/05 12:23:55;;;;;;;;;;;;;;;21.83;35.57;99733.97;1087923;54;19950;-87
2023/07/05 12:24:59;;;;;;;;;;;;;;;21.95;35.30;99727.56;1093035;39;20250;-88
2023/07/05 12:26:02;;;;;;;;;;;;;;;21.99;35.46;99727.91;1087694;47;19942;-87
2023/07/05 12:27:06;;;;;;;;;;;;;;;22.03;35.45;99722.84;1087612;54;19942;-88
2023/07/05 12:28:13;;;;;;;;;;;;;;;22.16;34.94;99719.97;1087827;54;19942;-87
2023/07/05 12:29:18;;;;;;;;;;;;;;;22.12;34.83;99724.19;1087568;47;20784;-87
2023/07/05 12:30:20;;;;;;;;;;;;;;;22.16;34.48;99717.25;1087662;54;19965;-87
2023/07/05 12:31:25;;;;;;;;;;;;;;;22.27;34.80;99721.94;1087947;47;19966;-88
2023/07/05 12:33:34;;;;;;;;;;;;;;;22.58;34.69;99708.31;1087553;54;19990;-89
2023/07/05 12:34:35;;;;;;;;;;;;;;;22.59;34.53;99702.63;1087768;46;19946;-87
2023/07/05 12:35:38;;;;;;;;;;;;;;;22.76;34.48;99699.25;1087333;54;19949;-87
2023/07/05 12:36:40;;;;;;;;;;;;;;;22.82;34.22;99705.66;1087759;54;19942;-89
2023/07/05 12:37:46;;;;;;;;;;;;;;;22.90;34.21;99706.16;1103749;39;20691;-83
2023/07/05 12:38:48;;;;;;;;;;;;;;;22.89;34.38;99709.13;1087732;54;20650;-87
2023/07/05 12:39:51;;;;;;;;;;;;;;;22.96;34.15;99703.53;1087607;54;19942;-89
2023/07/05 12:40:54;;;;;;;;;;;;;;;22.94;33.97;99703.78;1087482;54;19966;-86
2023/07/05 12:44:21;;;;;;;;;;;;;;;23.00;34.26;99702.00;1087436;54;19946;-89
2023/07/05 12:45:24;;;;;;;;;;;;;;;22.83;34.29;99701.84;1087384;47;19943;-88
2023/07/05 12:46:29;;;;;;;;;;;;;;;22.89;34.51;99706.38;1087376;47;20670;-89
2023/07/05 12:47:29;;;;;;;;;;;;;;;22.58;34.97;99698.25;1087642;47;19965;-86
2023/07/05 12:58:48;;;;;;;;;;;;;;;23.14;33.62;99689.84;1087045;54;19939;-84
2023/07/05 12:59:50;;;;;;;;;;;;;;;23.35;33.45;99691.16;1087924;47;20001;-89
2023/07/05 13:09:40;;;;;;;;;;;;;;;23.08;33.40;99698.94;1088236;54;19938;-88
2023/07/05 13:11:58;;;;;;;;;;;;;;;23.12;33.65;99702.88;1087473;54;19942;-86
2023/07/05 13:12:59;;;;;;;;;;;;;;;22.99;33.28;99693.00;1087162;47;19946;-88
2023/07/05 13:14:24;;;;;;;;;;;;;;;22.82;33.74;99695.59;1087042;54;19942;-86
2023/07/05 13:19:45;;;;;;;;;;;;;;;22.94;33.36;99692.88;1087463;54;19931;-87
2023/07/05 13:20:46;;;;;;;;;;;;;;;23.21;33.40;99689.72;1087835;47;20069;-89
2023/07/05 13:21:56;;;;;;;;;;;;;;;23.10;33.50;99699.53;1087322;47;19939;-88
2023/07/05 13:30:56;;;;;;;;;;;;;;;23.26;32.24;99689.84;1088021;54;19930;-89
2023/07/05 13:36:59;;;;;;;;;;;;;;;23.34;32.57;99684.03;1087864;54;19928;-82
2023/07/05 14:00:17;;;;;;;;;;;;;;;23.42;32.40;99701.09;1087277;54;19943;-89
2023/07/05 14:01:21;;;;;;;;;;;;;;;23.50;32.03;99695.28;1087733;47;19946;-89
2023/07/05 14:18:06;;;;;;;;;;;;;;;24.44;30.34;99682.44;1088236;54;20792;-89
2023/07/05 14:20:23;;;;;;;;;;;;;;;24.95;29.98;99693.44;1088409;39;21126;-88
2023/07/05 14:21:45;;;;;;;;;;;;;;;;;;;;;
2023/07/05 14:22:55;;;;;;;;;;;;;;;24.82;30.00;99680.13;1087719;47;20612;-89
2023/07/05 14:24:07;;;;;;;;;;;;;;;24.73;29.59;99683.28;1087494;54;19950;-87
2023/07/05 14:25:16;;;;;;;;;;;;;;;24.36;29.64;99680.94;1087674;54;19984;-84
2023/07/05 14:26:17;;;;;;;;;;;;;;;24.66;29.15;99682.53;1087464;47;19983;-87
2023/07/05 14:27:23;;;;;;;;;;;;;;;24.57;29.06;99682.13;1087110;46;19961;-87
2023/07/05 14:28:28;;;;;;;;;;;;;;;24.53;28.91;99672.75;1087259;47;20773;-89
2023/07/05 14:31:54;;;;;;;;;;;;;;;24.84;29.12;99686.19;1085957;54;19939;31
2023/07/05 14:32:55;;;;;;;;;;;;;;;24.88;29.30;99696.38;1089593;39;21072;-89
2023/07/05 14:36:16;;;;;;;;;;;;;;;25.41;28.62;99684.31;1088760;31;21054;-87
2023/07/05 14:37:16;;;;;;;;;;;;;;;25.57;28.21;99677.97;1087303;47;19948;-88
2023/07/05 14:38:20;;;;;;;;;;;;;;;25.57;28.48;99680.72;1087314;54;19943;-87
2023/07/05 14:39:21;;;;;;;;;;;;;;;25.58;28.70;99685.09;1087211;47;19942;-87
2023/07/05 14:40:27;;;;;;;;;;;;;;;25.75;28.02;99686.97;1087111;47;20714;-87
2023/07/05 14:41:28;;;;;;;;;;;;;;;25.16;28.37;99680.09;1087255;47;19945;-88
2023/07/05 14:42:31;;;;;;;;;;;;;;;25.36;28.01;99690.53;1087238;54;20046;-87
2023/07/05 14:43:38;;;;;;;;;;;;;;;24.85;29.07;99682.34;1087139;47;19973;-86
2023/07/05 14:44:42;;;;;;;;;;;;;;;25.01;29.08;99681.53;1087164;54;19939;-87
2023/07/05 14:45:44;;;;;;;;;;;;;;;25.26;28.23;99676.69;1087752;39;20625;-86
2023/07/05 14:46:47;;;;;;;;;;;;;;;25.50;28.39;99680.06;1087247;47;19991;-86
2023/07/05 14:47:52;;;;;;;;;;;;;;;25.54;28.37;99673.00;1087144;47;19939;-87
2023/07/05 14:48:56;;;;;;;;;;;;;;;25.69;28.18;99678.66;1087197;54;19950;-87
2023/07/05 14:49:57;;;;;;;;;;;;;;;25.63;28.19;99678.88;1087603;39;20710;-87
2023/07/05 14:51:00;;;;;;;;;;;;;;;25.75;28.23;99676.00;1087188;47;19965;-86
2023/07/05 14:52:04;;;;;;;;;;;;;;;25.56;28.01;99683.69;1087606;54;20021;-89
2023/07/05 14:54:16;;;;;;;;;;;;;;;25.02;28.60;99677.72;1086173;54;20777;-86
2023/07/05 14:56:43;;;;;;;;;;;;;;;25.25;28.32;99689.53;1086551;54;19942;31
2023/07/05 14:57:52;;;;;;;;;;;;;;;25.15;28.44;99694.84;1075011;47;20773;-89
2023/07/05 14:58:56;;;;;;;;;;;;;;;24.75;28.82;99688.47;1088311;54;19943;-89
2023/07/05 15:05:21;;;;;;;;;;;;;;;24.70;29.24;99691.94;1071322;54;21437;31
2023/07/05 15:08:11;;;;;;;;;;;;;;;24.94;28.98;99694.50;1087759;54;19947;-89
2023/07/05 15:09:38;;;;;;;;;;;;;;;;;;;;;
2023/07/05 15:10:49;;;;;;;;;;;;;;;24.91;28.84;99695.84;1087707;54;20502;-89
2023/07/05 15:19:58;;;;;;;;;;;;;;;24.67;28.63;99703.34;1083220;54;20691;-86
2023/07/05 15:21:01;;;;;;;;;;;;;;;24.72;27.97;99684.34;1087706;46;19934;-89
2023/07/05 15:26:17;;;;;;;;;;;;;;;24.73;28.96;99688.72;1088226;54;19947;-88
2023/07/05 15:27:24;;;;;;;;;;;;;;;24.77;29.00;99698.06;1087601;47;19943;-88
2023/07/05 15:28:28;;;;;;;;;;;;;;;24.37;29.39;99704.44;1087562;47;19967;-88
2023/07/05 15:36:21;;;;;;;;;;;;;;;24.29;29.70;99689.28;1095034;39;22031;-88
2023/07/05 15:37:24;;;;;;;;;;;;;;;24.37;29.64;99681.78;1082928;47;19938;-88
2023/07/05 15:38:28;;;;;;;;;;;;;;;24.39;29.42;99677.72;1087930;54;20985;-89
2023/07/05 15:46:16;;;;;;;;;;;;;;;24.21;29.59;99689.69;1071246;54;19935;-85
2023/07/05 15:51:27;;;;;;;;;;;;;;;23.74;30.25;99698.81;1087171;54;20253;-86
2023/07/05 15:52:28;;;;;;;;;;;;;;;23.76;29.99;99690.38;1087348;54;19942;-87
2023/07/05 15:59:57;;;;;;;;;;;;;;;23.79;30.66;99689.88;1087477;54;20005;-90
2023/07/05 16:01:00;;;;;;;;;;;;;;;23.57;30.78;99697.88;1088168;54;19991;-87
2023/07/05 16:05:43;;;;;;;;;;;;;;;23.74;30.22;99709.72;1082440;47;19934;-81
2023/07/05 16:08:06;;;;;;;;;;;;;;;23.77;30.60;99703.78;1087312;54;20299;-87
2023/07/05 16:09:08;;;;;;;;;;;;;;;23.91;30.38;99706.22;1087970;54;19942;-91
2023/07/05 16:26:40;;;;;;;;;;;;;;;23.83;30.98;99697.34;1087313;54;19946;-85